Time,TemperatureF,DewpointF,PressureIn,WindDirection,WindDirectionDegrees,WindSpeedMPH,WindSpeedGustMPH,Humidity,HourlyPrecipIn,Conditions,Clouds,dailyrainin,SoftwareType,DateUTC
2013-05-22 00:06:00,68.4,64.0,29.93,WNW,293,0.0,0.0,86,0.00,,,0.00,WUHU216HW,2013-05-22 04:06:00,
2013-05-22 00:16:00,68.0,64.0,29.93,WNW,293,0.0,0.0,87,0.00,,,0.00,WUHU216HW,2013-05-22 04:16:00,
2013-05-22 00:26:00,68.0,64.4,29.93,WNW,293,0.0,0.0,88,0.00,,,0.00,WUHU216HW,2013-05-22 04:26:00,
2013-05-22 00:36:00,67.7,64.0,29.93,WNW,293,0.0,0.4,88,0.00,,,0.00,WUHU216HW,2013-05-22 04:36:00,
2013-05-22 00:46:00,67.3,63.6,29.93,WNW,293,0.0,0.0,88,0.00,,,0.00,WUHU216HW,2013-05-22 04:46:00,
2013-05-22 00:56:00,67.1,63.5,29.94,WNW,293,0.0,0.0,88,0.00,,,0.00,WUHU216HW,2013-05-22 04:56:00,
2013-05-22 01:06:00,67.0,63.3,29.93,West,270,0.0,0.0,88,0.00,,,0.00,WUHU216HW,2013-05-22 05:06:00,
2013-05-22 01:16:00,66.8,63.4,29.93,West,270,0.0,0.0,89,0.00,,,0.00,WUHU216HW,2013-05-22 05:16:00,
2013-05-22 01:26:00,66.8,63.7,29.93,West,270,0.0,0.0,90,0.00,,,0.00,WUHU216HW,2013-05-22 05:26:00,
2013-05-22 01:37:00,66.8,63.7,29.93,West,270,0.0,0.0,90,0.00,,,0.00,WUHU216HW,2013-05-22 05:37:00,
2013-05-22 01:47:00,67.0,63.9,29.93,West,270,0.0,0.0,90,0.00,,,0.00,WUHU216HW,2013-05-22 05:47:00,
2013-05-22 01:57:00,66.6,63.5,29.93,West,270,0.0,0.0,90,0.00,,,0.00,WUHU216HW,2013-05-22 05:57:00,
2013-05-22 02:07:00,66.6,63.8,29.92,West,270,0.0,0.0,91,0.00,,,0.00,WUHU216HW,2013-05-22 06:07:00,
2013-05-22 02:17:00,66.6,63.8,29.92,West,270,0.0,0.0,91,0.00,,,0.00,WUHU216HW,2013-05-22 06:17:00,
2013-05-22 02:27:00,66.6,63.8,29.92,West,270,0.0,0.0,91,0.00,,,0.00,WUHU216HW,2013-05-22 06:27:00,
2013-05-22 02:37:00,67.0,64.8,29.91,West,270,0.2,0.4,93,0.00,,,0.00,WUHU216HW,2013-05-22 06:37:00,
2013-05-22 02:47:00,67.1,65.4,29.92,West,270,0.2,0.4,94,0.00,,,0.00,WUHU216HW,2013-05-22 06:47:00,
2013-05-22 02:57:00,67.0,64.8,29.92,West,270,0.0,0.2,93,0.00,,,0.00,WUHU216HW,2013-05-22 06:57:00,
2013-05-22 03:07:00,67.0,64.8,29.91,NNW,338,0.0,0.0,93,0.00,,,0.00,WUHU216HW,2013-05-22 07:07:00,
2013-05-22 03:17:00,66.8,64.6,29.91,NNW,338,0.0,0.0,93,0.00,,,0.00,WUHU216HW,2013-05-22 07:17:00,
2013-05-22 03:27:00,66.6,64.2,29.91,NW,315,0.0,0.0,92,0.00,,,0.00,WUHU216HW,2013-05-22 07:27:00,
2013-05-22 03:37:00,66.4,64.0,29.92,NW,315,0.0,0.0,92,0.00,,,0.00,WUHU216HW,2013-05-22 07:37:00,
2013-05-22 03:47:00,66.2,64.1,29.92,NW,315,0.0,0.0,93,0.00,,,0.00,WUHU216HW,2013-05-22 07:47:00,
2013-05-22 03:57:00,66.2,63.8,29.91,NW,315,0.0,0.0,92,0.00,,,0.00,WUHU216HW,2013-05-22 07:57:00,
2013-05-22 04:07:00,66.1,63.6,29.91,NW,315,0.0,0.0,92,0.00,,,0.00,WUHU216HW,2013-05-22 08:07:00,
2013-05-22 04:17:00,65.9,63.5,29.91,NW,315,0.0,0.0,92,0.00,,,0.00,WUHU216HW,2013-05-22 08:17:00,
2013-05-22 04:27:00,65.7,63.3,29.91,NW,315,0.0,0.0,92,0.00,,,0.00,WUHU216HW,2013-05-22 08:27:00,
2013-05-22 04:37:00,65.5,63.1,29.91,NW,315,0.0,0.0,92,0.00,,,0.00,WUHU216HW,2013-05-22 08:37:00,
2013-05-22 04:47:00,65.3,63.0,29.91,NW,315,0.0,0.0,92,0.00,,,0.00,WUHU216HW,2013-05-22 08:47:00,
2013-05-22 04:57:00,65.2,62.8,29.91,NW,315,0.0,0.0,92,0.00,,,0.00,WUHU216HW,2013-05-22 08:57:00,
2013-05-22 05:07:00,65.2,62.8,29.92,South,180,0.0,0.4,92,0.00,,,0.00,WUHU216HW,2013-05-22 09:07:00,
2013-05-22 05:17:00,65.0,62.7,29.92,South,180,0.0,0.0,92,0.00,,,0.00,WUHU216HW,2013-05-22 09:17:00,
2013-05-22 05:27:00,65.0,62.7,29.92,South,180,0.0,0.2,92,0.00,,,0.00,WUHU216HW,2013-05-22 09:27:00,
2013-05-22 05:37:00,65.0,62.7,29.93,South,180,0.0,0.0,92,0.00,,,0.00,WUHU216HW,2013-05-22 09:37:00,
2013-05-22 05:47:00,65.0,62.9,29.93,South,180,0.0,0.0,93,0.00,,,0.00,WUHU216HW,2013-05-22 09:47:00,
2013-05-22 05:57:00,65.0,62.9,29.93,South,180,0.0,0.0,93,0.00,,,0.00,WUHU216HW,2013-05-22 09:57:00,
2013-05-22 06:07:00,65.0,62.9,29.93,South,180,0.0,0.0,93,0.00,,,0.00,WUHU216HW,2013-05-22 10:07:00,
2013-05-22 06:17:00,65.2,63.1,29.93,South,180,0.0,0.0,93,0.00,,,0.00,WUHU216HW,2013-05-22 10:17:00,
2013-05-22 06:27:00,65.5,63.5,29.94,South,180,0.0,0.0,93,0.00,,,0.00,WUHU216HW,2013-05-22 10:27:00,
2013-05-22 06:37:00,65.9,63.7,29.94,South,180,0.0,0.0,93,0.00,,,0.00,WUHU216HW,2013-05-22 10:37:00,
2013-05-22 06:47:00,66.2,64.5,29.95,SE,135,0.2,0.4,94,0.00,,,0.00,WUHU216HW,2013-05-22 10:47:00,
2013-05-22 06:57:00,66.6,65.1,29.96,East,90,0.2,0.9,95,0.00,,,0.00,WUHU216HW,2013-05-22 10:57:00,
2013-05-22 07:07:00,67.0,65.4,29.96,ENE,68,1.8,1.8,95,0.00,,,0.00,WUHU216HW,2013-05-22 11:07:00,
2013-05-22 07:17:00,67.1,65.6,29.96,ENE,68,0.4,2.2,95,0.00,,,0.00,WUHU216HW,2013-05-22 11:17:00,
2013-05-22 07:27:00,67.1,65.6,29.96,NNE,23,0.0,0.4,95,0.00,,,0.00,WUHU216HW,2013-05-22 11:27:00,
2013-05-22 07:37:00,67.3,65.8,29.96,ENE,68,1.1,1.1,95,0.00,,,0.00,WUHU216HW,2013-05-22 11:37:00,
2013-05-22 07:47:00,67.3,65.8,29.96,ENE,68,0.0,0.0,95,0.00,,,0.00,WUHU216HW,2013-05-22 11:47:00,
2013-05-22 07:57:00,67.7,66.2,29.97,East,90,0.9,0.9,95,0.00,,,0.00,WUHU216HW,2013-05-22 11:57:00,
2013-05-22 08:07:00,66.8,65.3,29.97,ENE,68,0.7,2.5,95,0.00,,,0.00,WUHU216HW,2013-05-22 12:07:00,
2013-05-22 08:17:00,65.9,63.7,29.98,ENE,68,0.4,2.5,93,0.00,,,0.00,WUHU216HW,2013-05-22 12:17:00,
2013-05-22 08:27:00,65.2,63.1,29.98,ENE,68,0.4,2.5,93,0.00,,,0.00,WUHU216HW,2013-05-22 12:27:00,
2013-05-22 08:37:00,65.0,62.7,29.97,SE,135,0.7,2.0,92,0.00,,,0.00,WUHU216HW,2013-05-22 12:37:00,
2013-05-22 08:47:00,64.8,62.5,29.98,SSE,158,1.1,2.5,92,0.00,,,0.00,WUHU216HW,2013-05-22 12:47:00,
2013-05-22 08:57:00,64.6,62.3,29.98,ESE,113,0.0,1.8,92,0.00,,,0.00,WUHU216HW,2013-05-22 12:57:00,
2013-05-22 09:07:00,64.6,62.3,29.98,North,0,0.2,0.7,92,0.00,,,0.00,WUHU216HW,2013-05-22 13:07:00,
2013-05-22 09:17:00,64.6,62.3,29.98,ENE,68,0.2,1.8,92,0.00,,,0.00,WUHU216HW,2013-05-22 13:17:00,
2013-05-22 09:27:00,64.6,62.3,29.98,North,0,0.7,0.9,92,0.00,,,0.00,WUHU216HW,2013-05-22 13:27:00,
2013-05-22 09:37:00,64.6,62.3,29.98,ENE,68,0.0,0.4,92,0.00,,,0.00,WUHU216HW,2013-05-22 13:37:00,
2013-05-22 09:47:00,65.0,62.7,29.98,SSE,158,1.1,1.1,92,0.00,,,0.00,WUHU216HW,2013-05-22 13:47:00,
2013-05-22 09:57:00,65.2,62.8,29.98,ENE,68,0.7,2.7,92,0.00,,,0.00,WUHU216HW,2013-05-22 13:57:00,
2013-05-22 10:07:00,65.0,62.7,29.98,SSE,158,0.2,1.6,92,0.00,,,0.00,WUHU216HW,2013-05-22 14:07:00,
2013-05-22 10:17:00,64.8,62.5,29.98,South,180,1.1,1.1,92,0.00,,,0.00,WUHU216HW,2013-05-22 14:17:00,
2013-05-22 10:27:00,65.0,62.7,29.98,North,0,0.9,2.0,92,0.00,,,0.00,WUHU216HW,2013-05-22 14:27:00,
2013-05-22 10:37:00,65.2,62.8,29.99,SE,135,0.4,0.9,92,0.00,,,0.00,WUHU216HW,2013-05-22 14:37:00,
2013-05-22 10:47:00,65.5,63.1,29.98,SSE,158,0.4,1.1,92,0.00,,,0.00,WUHU216HW,2013-05-22 14:47:00,
2013-05-22 10:57:00,65.9,63.5,29.98,SSE,158,0.4,0.7,92,0.00,,,0.00,WUHU216HW,2013-05-22 14:57:00,
2013-05-22 11:07:00,66.2,63.8,29.98,SSW,203,0.0,0.4,92,0.00,,,0.00,WUHU216HW,2013-05-22 15:07:00,
2013-05-22 11:17:00,66.8,64.6,29.98,SSW,203,0.0,1.1,93,0.00,,,0.00,WUHU216HW,2013-05-22 15:17:00,
2013-05-22 11:27:00,66.8,64.6,29.98,WSW,248,0.0,1.1,93,0.00,,,0.00,WUHU216HW,2013-05-22 15:27:00,
2013-05-22 11:37:00,67.3,64.9,29.98,NW,315,0.0,1.1,92,0.00,,,0.00,WUHU216HW,2013-05-22 15:37:00,
2013-05-22 11:47:00,67.1,64.7,29.98,WNW,293,0.0,0.7,92,0.00,,,0.00,WUHU216HW,2013-05-22 15:47:00,
2013-05-22 11:57:00,68.0,65.9,29.97,SSE,158,0.7,1.8,93,0.00,,,0.00,WUHU216HW,2013-05-22 15:57:00,
2013-05-22 12:07:00,68.4,66.0,29.97,SSW,203,0.2,2.5,92,0.00,,,0.00,WUHU216HW,2013-05-22 16:07:00,
2013-05-22 12:17:00,68.6,65.8,29.96,North,0,0.2,1.3,91,0.00,,,0.00,WUHU216HW,2013-05-22 16:17:00,
2013-05-22 12:27:00,69.3,66.5,29.97,South,180,1.3,1.3,91,0.00,,,0.00,WUHU216HW,2013-05-22 16:27:00,
2013-05-22 12:37:00,70.2,67.8,29.97,WNW,293,0.2,1.6,92,0.00,,,0.00,WUHU216HW,2013-05-22 16:37:00,
2013-05-22 12:47:00,70.4,67.6,29.96,NW,315,0.4,1.3,91,0.00,,,0.00,WUHU216HW,2013-05-22 16:47:00,
2013-05-22 12:57:00,70.7,68.0,29.96,WNW,293,0.4,1.1,91,0.00,,,0.00,WUHU216HW,2013-05-22 16:57:00,
2013-05-22 13:07:00,70.9,68.1,29.96,WSW,248,0.4,1.6,91,0.00,,,0.00,WUHU216HW,2013-05-22 17:07:00,
2013-05-22 13:17:00,71.5,68.7,29.96,NW,315,0.4,1.1,91,0.00,,,0.00,WUHU216HW,2013-05-22 17:17:00,
2013-05-22 13:27:00,72.2,69.4,29.96,SSW,203,1.8,1.8,91,0.00,,,0.00,WUHU216HW,2013-05-22 17:27:00,
2013-05-22 13:37:00,72.4,69.3,29.96,WNW,293,0.0,1.3,90,0.00,,,0.00,WUHU216HW,2013-05-22 17:37:00,
2013-05-22 13:47:00,73.1,70.0,29.95,WNW,293,0.2,0.9,90,0.00,,,0.00,WUHU216HW,2013-05-22 17:47:00,
2013-05-22 13:57:00,74.7,71.6,29.95,South,180,1.8,1.8,90,0.00,,,0.00,WUHU216HW,2013-05-22 17:57:00,
2013-05-22 14:07:00,76.0,72.5,29.95,SE,135,0.0,2.0,89,0.00,,,0.00,WUHU216HW,2013-05-22 18:07:00,
2013-05-22 14:17:00,77.0,72.9,29.95,SE,135,0.4,3.8,87,0.00,,,0.00,WUHU216HW,2013-05-22 18:17:00,
2013-05-22 14:27:00,77.8,72.5,29.94,West,270,0.2,1.8,84,0.00,,,0.00,WUHU216HW,2013-05-22 18:27:00,
2013-05-22 14:37:00,78.1,72.9,29.94,SSE,158,0.2,1.6,84,0.00,,,0.00,WUHU216HW,2013-05-22 18:37:00,
2013-05-22 14:47:00,78.8,72.5,29.94,NW,315,0.9,2.5,81,0.00,,,0.00,WUHU216HW,2013-05-22 18:47:00,
2013-05-22 14:57:00,79.2,73.3,29.93,SSW,203,0.9,2.2,82,0.00,,,0.00,WUHU216HW,2013-05-22 18:57:00,
2013-05-22 15:07:00,79.6,73.3,29.93,SE,135,0.9,1.1,81,0.00,,,0.00,WUHU216HW,2013-05-22 19:07:00,
2013-05-22 15:17:00,79.6,73.3,29.93,SSE,158,1.8,3.1,81,0.00,,,0.00,WUHU216HW,2013-05-22 19:17:00,
2013-05-22 15:27:00,80.1,73.4,29.92,SE,135,0.7,3.1,80,0.00,,,0.00,WUHU216HW,2013-05-22 19:27:00,
2013-05-22 15:37:00,80.8,73.8,29.92,South,180,0.2,2.7,79,0.00,,,0.00,WUHU216HW,2013-05-22 19:37:00,
2013-05-22 15:47:00,80.8,73.4,29.92,SSE,158,2.7,3.6,78,0.00,,,0.00,WUHU216HW,2013-05-22 19:47:00,
2013-05-22 15:57:00,80.5,73.0,29.92,SSE,158,0.9,3.1,78,0.00,,,0.00,WUHU216HW,2013-05-22 19:57:00,
2013-05-22 16:07:00,80.8,73.4,29.92,South,180,2.5,6.3,78,0.00,,,0.00,WUHU216HW,2013-05-22 20:07:00,
2013-05-22 16:17:00,81.0,73.2,29.91,NW,315,0.7,2.0,77,0.00,,,0.00,WUHU216HW,2013-05-22 20:17:00,
2013-05-22 16:27:00,80.8,73.4,29.91,ENE,68,0.4,2.7,78,0.00,,,0.00,WUHU216HW,2013-05-22 20:27:00,
2013-05-22 16:37:00,81.4,73.9,29.91,South,180,2.5,2.5,78,0.00,,,0.00,WUHU216HW,2013-05-22 20:37:00,
2013-05-22 16:47:00,81.9,74.4,29.91,South,180,1.3,1.8,78,0.00,,,0.00,WUHU216HW,2013-05-22 20:47:00,
2013-05-22 16:57:00,82.1,74.2,29.91,SE,135,1.6,3.1,77,0.00,,,0.00,WUHU216HW,2013-05-22 20:57:00,
2013-05-22 17:08:00,83.0,74.6,29.90,West,270,0.2,2.9,76,0.00,,,0.00,WUHU216HW,2013-05-22 21:08:00,
2013-05-22 17:18:00,83.9,73.9,29.90,WSW,248,1.6,1.8,72,0.00,,,0.00,WUHU216HW,2013-05-22 21:18:00,
2013-05-22 17:28:00,83.7,74.5,29.90,ESE,113,1.1,1.1,74,0.00,,,0.00,WUHU216HW,2013-05-22 21:28:00,
2013-05-22 17:38:00,83.9,74.7,29.89,North,0,0.0,4.0,74,0.00,,,0.00,WUHU216HW,2013-05-22 21:38:00,
2013-05-22 17:48:00,83.7,74.5,29.89,West,270,0.4,1.6,74,0.00,,,0.00,WUHU216HW,2013-05-22 21:48:00,
2013-05-22 17:58:00,83.9,73.4,29.89,WSW,248,1.1,2.5,71,0.00,,,0.00,WUHU216HW,2013-05-22 21:58:00,
2013-05-22 18:08:00,83.9,74.3,29.89,ESE,113,0.4,2.2,73,0.00,,,0.00,WUHU216HW,2013-05-22 22:08:00,
2013-05-22 18:18:00,84.1,74.1,29.89,SE,135,1.1,2.2,72,0.00,,,0.00,WUHU216HW,2013-05-22 22:18:00,
2013-05-22 18:28:00,84.2,73.8,29.89,SSE,158,0.2,2.9,71,0.00,,,0.00,WUHU216HW,2013-05-22 22:28:00,
2013-05-22 18:38:00,84.1,72.8,29.89,SSW,203,0.0,2.5,69,0.00,,,0.00,WUHU216HW,2013-05-22 22:38:00,
2013-05-22 18:48:00,83.9,73.1,29.89,SSE,158,0.0,0.7,70,0.00,,,0.00,WUHU216HW,2013-05-22 22:48:00,
2013-05-22 18:58:00,83.9,73.1,29.90,South,180,0.0,2.5,70,0.00,,,0.00,WUHU216HW,2013-05-22 22:58:00,
2013-05-22 19:08:00,83.5,72.7,29.90,SSW,203,0.0,0.2,70,0.00,,,0.00,WUHU216HW,2013-05-22 23:08:00,
2013-05-22 19:18:00,83.2,72.4,29.90,SSW,203,0.0,0.0,70,0.00,,,0.00,WUHU216HW,2013-05-22 23:18:00,
2013-05-22 19:28:00,82.4,72.1,29.90,SSW,203,0.0,0.0,71,0.00,,,0.00,WUHU216HW,2013-05-22 23:28:00,
2013-05-22 19:38:00,81.9,71.6,29.90,SSW,203,0.0,0.0,71,0.00,,,0.00,WUHU216HW,2013-05-22 23:38:00,
2013-05-22 19:48:00,81.0,70.7,29.91,SSW,203,0.0,0.0,71,0.00,,,0.00,WUHU216HW,2013-05-22 23:48:00,
2013-05-22 19:58:00,79.9,70.1,29.91,SSW,203,0.0,0.0,72,0.00,,,0.00,WUHU216HW,2013-05-22 23:58:00,
2013-05-22 20:08:00,78.8,69.9,29.91,SSW,203,0.0,0.2,74,0.00,,,0.00,WUHU216HW,2013-05-23 00:08:00,
2013-05-22 20:18:00,77.8,69.2,29.91,SSW,203,0.0,0.2,75,0.00,,,0.00,WUHU216HW,2013-05-23 00:18:00,
2013-05-22 20:28:00,76.9,68.7,29.91,SSW,203,0.0,0.0,76,0.00,,,0.00,WUHU216HW,2013-05-23 00:28:00,
2013-05-22 20:38:00,76.0,68.2,29.91,SSW,203,0.0,0.0,77,0.00,,,0.00,WUHU216HW,2013-05-23 00:38:00,
2013-05-22 20:48:00,75.2,68.0,29.92,SSW,203,0.0,0.0,78,0.00,,,0.00,WUHU216HW,2013-05-23 00:48:00,
2013-05-22 20:58:00,74.7,67.9,29.92,SSW,203,0.0,0.0,79,0.00,,,0.00,WUHU216HW,2013-05-23 00:58:00,
2013-05-22 21:08:00,74.0,67.9,29.92,SSW,203,0.0,0.0,81,0.00,,,0.00,WUHU216HW,2013-05-23 01:08:00,
2013-05-22 21:18:00,73.4,67.3,29.93,SSW,203,0.0,0.2,81,0.00,,,0.00,WUHU216HW,2013-05-23 01:18:00,
2013-05-22 21:28:00,72.9,67.2,29.93,South,180,0.0,0.0,82,0.00,,,0.00,WUHU216HW,2013-05-23 01:28:00,
2013-05-22 21:38:00,72.5,66.8,29.94,South,180,0.2,0.2,82,0.00,,,0.00,WUHU216HW,2013-05-23 01:38:00,
2013-05-22 21:48:00,72.7,67.2,29.94,West,270,0.0,0.4,83,0.00,,,0.00,WUHU216HW,2013-05-23 01:48:00,
2013-05-22 21:58:00,73.1,68.0,29.94,North,0,0.0,0.4,84,0.00,,,0.00,WUHU216HW,2013-05-23 01:58:00,
2013-05-22 22:08:00,73.1,68.0,29.94,SSW,203,0.0,0.2,84,0.00,,,0.00,WUHU216HW,2013-05-23 02:08:00,
2013-05-22 22:18:00,73.1,68.3,29.95,North,0,0.0,0.4,85,0.00,,,0.00,WUHU216HW,2013-05-23 02:18:00,
2013-05-22 22:28:00,73.1,68.3,29.95,NW,315,0.0,0.4,85,0.00,,,0.00,WUHU216HW,2013-05-23 02:28:00,
2013-05-22 22:38:00,73.1,68.7,29.96,WNW,293,0.0,0.4,86,0.00,,,0.00,WUHU216HW,2013-05-23 02:38:00,
2013-05-22 22:48:00,72.9,68.1,29.96,WNW,293,0.4,0.4,85,0.00,,,0.00,WUHU216HW,2013-05-23 02:48:00,
2013-05-22 22:58:00,72.9,68.5,29.96,WNW,293,0.0,0.7,86,0.00,,,0.00,WUHU216HW,2013-05-23 02:58:00,
2013-05-22 23:08:00,72.7,68.0,29.95,North,0,0.0,0.7,85,0.00,,,0.00,WUHU216HW,2013-05-23 03:08:00,
2013-05-22 23:18:00,72.2,67.8,29.94,NW,315,0.0,0.0,86,0.00,,,0.00,WUHU216HW,2013-05-23 03:18:00,
2013-05-22 23:28:00,72.0,67.6,29.94,North,0,0.0,0.0,86,0.00,,,0.00,WUHU216HW,2013-05-23 03:28:00,
2013-05-22 23:38:00,72.2,68.4,29.95,NW,315,0.2,0.9,88,0.00,,,0.00,WUHU216HW,2013-05-23 03:38:00,
2013-05-22 23:48:00,72.2,68.4,29.95,WNW,293,0.7,0.7,88,0.00,,,0.00,WUHU216HW,2013-05-23 03:48:00,
2013-05-22 23:58:00,72.4,68.6,29.95,NW,315,0.0,0.2,88,0.00,,,0.00,WUHU216HW,2013-05-23 03:58:00,